Quill Lake, Canada
Current Conditions -  °F | °C
As of 10:08 PM on Sunday 21 Dec 2014 (Local Time) from CYBU Reporting Station
Haze Haze  
Wind Chill: 17°   Ceiling: 300
Heat Index: 25°   Visibility: 0.75mi
Dew Point: 25°   Wind: 7mph
Humidity: 100%   Direction: 30°NNE
Pressure: 29.57"   Gusts: NA
Location:  52.07°N, 104.25°W
Report Text: CYBU 220408Z AUTO 03006KT 3/4SM BR OVC003 M04/M04 A2957 RMK ICG SLP037
Loading
Personal Weather Stations






























Interactive Weather Map New forecast layout! Learn more

10-Day Weather Forecast

Advertisements
Track Severe Weather on mobile